createdAt,value
2023-04-14T00:02:11.136Z,50.55
2023-04-14T00:04:37.899Z,50.97
2023-04-14T00:07:04.517Z,51.15
2023-04-14T00:09:31.105Z,51.29
2023-04-14T00:11:57.930Z,50.91
2023-04-14T00:14:24.438Z,51.15
2023-04-14T00:16:51.190Z,50.83
2023-04-14T00:19:17.795Z,51.43
2023-04-14T00:21:44.586Z,51.54
2023-04-14T00:24:11.205Z,51.26
2023-04-14T00:26:37.761Z,51.12
2023-04-14T00:29:04.443Z,51.32
2023-04-14T00:31:31.048Z,51.32
2023-04-14T00:33:57.566Z,51.85
2023-04-14T00:36:24.090Z,51.16
2023-04-14T00:38:50.700Z,51.22
2023-04-14T00:41:17.261Z,51.31
2023-04-14T00:43:43.828Z,51.39
2023-04-14T00:46:10.344Z,51.23
2023-04-14T00:48:37.037Z,51.54
2023-04-14T00:51:04.165Z,51.53
2023-04-14T00:53:31.683Z,51.61
2023-04-14T00:55:58.777Z,51.63
2023-04-14T00:58:25.435Z,51.52
2023-04-14T01:00:55.446Z,51.44
2023-04-14T01:03:24.584Z,51.58
2023-04-14T01:05:51.530Z,51.61
2023-04-14T01:08:18.445Z,51.60
2023-04-14T01:11:10.561Z,51.79
2023-04-14T01:14:18.294Z,51.72
2023-04-14T01:16:45.548Z,51.77
2023-04-14T01:19:30.924Z,51.87
2023-04-14T01:21:58.064Z,51.78
2023-04-14T01:24:38.061Z,51.90
2023-04-14T01:27:51.196Z,51.79
2023-04-14T01:30:29.131Z,51.85
2023-04-14T01:32:56.732Z,51.80
2023-04-14T01:35:41.349Z,51.86
2023-04-14T01:38:09.974Z,51.76
2023-04-14T01:40:37.250Z,51.66
2023-04-14T01:43:05.713Z,51.64
2023-04-14T01:45:36.970Z,51.72
2023-04-14T01:48:03.905Z,51.46
2023-04-14T01:50:30.531Z,51.51
2023-04-14T01:52:57.090Z,51.40
2023-04-14T01:55:23.788Z,51.28
2023-04-14T01:57:51.145Z,51.57
2023-04-14T02:00:18.047Z,51.36
2023-04-14T02:02:45.503Z,51.51
2023-04-14T02:05:13.393Z,51.54
2023-04-14T02:07:40.935Z,51.54
2023-04-14T02:10:09.638Z,51.38
2023-04-14T02:12:37.440Z,51.33
2023-04-14T02:15:04.205Z,51.32
2023-04-14T02:17:30.918Z,51.68
2023-04-14T02:19:57.454Z,50.87
2023-04-14T02:22:24.016Z,51.05
2023-04-14T02:24:51.412Z,51.17
2023-04-14T02:27:21.159Z,51.18
2023-04-14T02:29:50.572Z,51.26
2023-04-14T02:32:20.416Z,51.23
2023-04-14T02:35:01.841Z,51.35
2023-04-14T02:37:33.833Z,51.12
2023-04-14T02:40:02.185Z,50.88
2023-04-14T02:42:28.975Z,51.12
2023-04-14T02:45:06.634Z,51.29
2023-04-14T02:47:34.911Z,51.19
2023-04-14T02:50:02.604Z,51.09
2023-04-14T02:52:31.382Z,51.23
2023-04-14T02:54:58.676Z,51.24
2023-04-14T02:57:25.900Z,51.34
2023-04-14T02:59:52.890Z,51.41
2023-04-14T03:02:19.559Z,51.30
2023-04-14T03:04:46.767Z,51.22
2023-04-14T03:07:14.164Z,51.17
2023-04-14T03:09:40.707Z,51.37
2023-04-14T03:12:08.019Z,51.38
2023-04-14T03:14:35.846Z,51.32
2023-04-14T03:17:02.384Z,51.53
2023-04-14T03:19:28.961Z,51.41
2023-04-14T03:21:55.573Z,51.72
2023-04-14T03:24:24.589Z,51.45
2023-04-14T03:26:57.489Z,51.35
2023-04-14T03:29:28.803Z,51.30
2023-04-14T03:31:55.623Z,51.42
2023-04-14T03:34:23.157Z,51.36
2023-04-14T03:36:50.957Z,51.38
2023-04-14T03:39:17.531Z,51.29
2023-04-14T03:41:47.954Z,51.47
2023-04-14T03:44:16.480Z,51.28
2023-04-14T03:46:43.058Z,51.04
2023-04-14T03:49:11.510Z,51.73
2023-04-14T03:51:39.099Z,51.34
2023-04-14T03:54:06.229Z,51.38
2023-04-14T03:56:33.971Z,51.51
2023-04-14T03:59:00.951Z,51.63
2023-04-14T04:01:27.901Z,51.28
2023-04-14T04:03:54.716Z,51.59
2023-04-14T04:06:21.603Z,51.13
2023-04-14T04:08:48.741Z,51.41
2023-04-14T04:11:18.771Z,51.55
2023-04-14T04:13:45.649Z,51.32
2023-04-14T04:16:12.180Z,51.30
2023-04-14T04:18:38.975Z,51.25
2023-04-14T04:21:05.706Z,51.46
2023-04-14T04:23:32.948Z,51.29
2023-04-14T04:25:59.493Z,51.31
2023-04-14T04:28:27.026Z,51.27
2023-04-14T04:30:53.567Z,51.14
2023-04-14T04:33:20.403Z,51.43
2023-04-14T04:35:46.983Z,51.34
2023-04-14T04:38:13.526Z,51.51
2023-04-14T04:40:40.054Z,51.37
2023-04-14T04:43:06.632Z,51.31
2023-04-14T04:45:44.401Z,51.48
2023-04-14T04:48:11.067Z,51.31
2023-04-14T04:50:37.627Z,51.27
2023-04-14T04:53:04.171Z,51.59
2023-04-14T04:55:31.005Z,51.42
2023-04-14T04:57:58.070Z,51.42
2023-04-14T05:00:26.140Z,51.40
2023-04-14T05:02:52.783Z,51.30
2023-04-14T05:05:19.411Z,51.15
2023-04-14T05:07:45.938Z,51.06
2023-04-14T05:10:12.481Z,50.78
2023-04-14T05:12:39.048Z,50.82
2023-04-14T05:15:06.467Z,50.88
2023-04-14T05:17:33.076Z,51.32
2023-04-14T05:19:59.636Z,51.05
2023-04-14T05:22:26.190Z,51.22
2023-04-14T05:24:52.750Z,51.52
2023-04-14T05:27:19.248Z,50.99
2023-04-14T05:29:45.832Z,51.43
2023-04-14T05:32:14.444Z,50.68
2023-04-14T05:34:41.810Z,50.78
2023-04-14T05:37:08.320Z,51.50
2023-04-14T05:39:35.292Z,51.22
2023-04-14T05:42:01.856Z,50.64
2023-04-14T05:44:28.353Z,51.50
2023-04-14T05:46:55.021Z,51.33
2023-04-14T05:49:21.967Z,51.18
2023-04-14T05:51:48.518Z,51.64
2023-04-14T05:54:15.610Z,51.49
2023-04-14T05:56:42.135Z,51.97
2023-04-14T05:59:08.770Z,51.51
2023-04-14T06:01:35.500Z,50.58
2023-04-14T06:04:03.809Z,49.93
2023-04-14T06:06:32.547Z,49.87
2023-04-14T06:08:59.234Z,49.12
2023-04-14T06:11:26.184Z,48.21
2023-04-14T06:13:52.788Z,47.52
2023-04-14T06:16:19.414Z,47.38
2023-04-14T06:18:45.960Z,48.10
2023-04-14T06:21:12.577Z,46.63
2023-04-14T06:23:39.194Z,46.61
2023-04-14T06:26:06.100Z,46.19
2023-04-14T06:28:32.700Z,46.24
2023-04-14T06:31:00.479Z,46.10
2023-04-14T06:33:27.217Z,46.86
2023-04-14T06:35:53.893Z,45.18
2023-04-14T06:38:20.677Z,45.44
2023-04-14T06:40:47.842Z,45.83
2023-04-14T06:43:15.015Z,46.55
2023-04-14T06:45:41.763Z,46.74
2023-04-14T06:48:08.417Z,48.18
2023-04-14T06:50:35.019Z,46.56
2023-04-14T06:53:01.560Z,46.04
2023-04-14T06:55:28.135Z,46.41
2023-04-14T06:57:54.743Z,45.94
2023-04-14T07:00:21.731Z,45.92
2023-04-14T07:02:48.409Z,45.70
2023-04-14T07:05:15.231Z,46.18
2023-04-14T07:07:41.849Z,46.47
2023-04-14T07:10:08.873Z,47.00
2023-04-14T07:12:35.462Z,46.97
2023-04-14T07:15:02.067Z,47.10
2023-04-14T07:17:28.628Z,47.83
2023-04-14T07:19:58.200Z,47.39
2023-04-14T07:22:24.729Z,48.08
2023-04-14T07:24:51.873Z,48.26
2023-04-14T07:27:18.408Z,48.30
2023-04-14T07:29:44.972Z,48.33
2023-04-14T07:32:13.329Z,48.25
2023-04-14T07:34:43.588Z,48.45
2023-04-14T07:37:10.856Z,48.59
2023-04-14T07:39:37.437Z,48.54
2023-04-14T07:42:04.828Z,48.51
2023-04-14T07:44:31.358Z,48.82
2023-04-14T07:46:58.018Z,48.48
2023-04-14T07:49:24.569Z,48.74
2023-04-14T07:51:51.069Z,48.81
2023-04-14T07:54:17.559Z,48.97
2023-04-14T07:56:44.121Z,48.85
2023-04-14T07:59:10.738Z,48.52
2023-04-14T08:01:37.754Z,48.98
2023-04-14T08:04:04.539Z,48.90
2023-04-14T08:06:31.269Z,49.06
2023-04-14T08:08:57.993Z,49.06
2023-04-14T08:11:24.664Z,49.09
2023-04-14T08:13:52.938Z,49.12
2023-04-14T08:16:19.793Z,49.14
2023-04-14T08:18:46.377Z,49.55
2023-04-14T08:21:12.968Z,49.18
2023-04-14T08:23:39.596Z,49.28
2023-04-14T08:26:06.627Z,49.03
2023-04-14T08:28:33.263Z,49.19
2023-04-14T08:30:59.909Z,48.98
2023-04-14T08:33:26.547Z,49.41
2023-04-14T08:35:59.998Z,49.00
2023-04-14T08:38:28.883Z,49.36
2023-04-14T08:40:56.480Z,49.42
2023-04-14T08:43:23.381Z,49.51
2023-04-14T08:45:53.401Z,49.46
2023-04-14T08:48:20.578Z,49.65
2023-04-14T08:51:10.310Z,49.47
2023-04-14T08:53:42.895Z,49.39
2023-04-14T08:56:09.695Z,49.32
2023-04-14T08:58:36.286Z,49.84
2023-04-14T09:01:03.299Z,49.68
2023-04-14T09:03:30.217Z,49.71
2023-04-14T09:05:57.009Z,49.51
2023-04-14T09:08:23.752Z,49.65
2023-04-14T09:10:50.472Z,49.65
2023-04-14T09:13:17.230Z,49.64
2023-04-14T09:15:43.897Z,49.43
2023-04-14T09:18:11.455Z,49.60
2023-04-14T09:20:41.140Z,49.84
2023-04-14T09:23:12.257Z,49.82
2023-04-14T09:25:39.058Z,49.65
2023-04-14T09:28:05.748Z,50.30
2023-04-14T09:30:32.553Z,49.99
2023-04-14T09:32:59.152Z,50.24
2023-04-14T09:35:43.375Z,49.85
2023-04-14T09:38:09.921Z,50.26
2023-04-14T09:40:36.440Z,49.20
2023-04-14T09:43:02.991Z,49.66
2023-04-14T09:45:45.479Z,49.87
2023-04-14T09:48:15.325Z,49.99
2023-04-14T09:51:11.775Z,50.08
2023-04-14T09:53:40.357Z,49.95
2023-04-14T09:56:10.886Z,50.03
2023-04-14T09:58:44.107Z,49.93
2023-04-14T10:01:18.193Z,49.89
2023-04-14T10:03:48.612Z,49.92
2023-04-14T10:06:17.877Z,50.12
2023-04-14T10:08:46.850Z,50.13
2023-04-14T10:11:17.226Z,49.96
2023-04-14T10:13:47.684Z,50.11
2023-04-14T10:16:14.787Z,50.11
2023-04-14T10:18:41.605Z,50.16
2023-04-14T10:21:08.161Z,50.14
2023-04-14T10:23:38.601Z,50.12
2023-04-14T10:26:12.260Z,50.16
2023-04-14T10:28:51.626Z,50.55
2023-04-14T10:31:29.502Z,50.29
2023-04-14T10:33:56.172Z,50.34
2023-04-14T10:36:24.557Z,50.37
2023-04-14T10:38:57.630Z,50.16
2023-04-14T10:41:24.209Z,50.12
2023-04-14T10:43:50.995Z,49.84
2023-04-14T10:46:18.631Z,50.04
2023-04-14T10:48:48.807Z,50.13
2023-04-14T10:51:17.415Z,50.07
2023-04-14T10:53:46.442Z,50.10
2023-04-14T10:56:13.423Z,50.24
2023-04-14T10:58:40.043Z,50.17
2023-04-14T11:01:29.364Z,50.19
2023-04-14T11:03:56.922Z,50.01
2023-04-14T11:06:45.944Z,50.09
2023-04-14T11:09:34.775Z,50.11
2023-04-14T11:12:24.300Z,50.24
2023-04-14T11:15:01.609Z,50.07
2023-04-14T11:17:30.373Z,50.17
2023-04-14T11:19:56.991Z,50.48
2023-04-14T11:22:42.556Z,50.04
2023-04-14T11:25:17.787Z,50.12
2023-04-14T11:27:44.927Z,50.00
2023-04-14T11:30:15.543Z,50.14
2023-04-14T11:32:52.075Z,50.17
2023-04-14T11:35:19.125Z,50.27
2023-04-14T11:37:48.796Z,50.21
2023-04-14T11:40:15.927Z,50.15
2023-04-14T11:42:49.023Z,49.87
2023-04-14T11:45:15.733Z,50.07
2023-04-14T11:48:01.923Z,50.20
2023-04-14T11:50:31.384Z,50.28
2023-04-14T11:52:59.669Z,50.19
2023-04-14T11:55:27.076Z,50.13
2023-04-14T11:57:54.614Z,50.24
2023-04-14T12:00:21.329Z,50.06
2023-04-14T12:02:48.171Z,50.27
2023-04-14T12:05:21.120Z,50.15
2023-04-14T12:07:50.518Z,50.24
2023-04-14T12:10:17.812Z,50.24
2023-04-14T12:12:44.380Z,50.36
2023-04-14T12:15:11.488Z,50.16
2023-04-14T12:17:38.513Z,49.80
2023-04-14T12:20:05.581Z,48.64
2023-04-14T12:22:32.140Z,48.74
2023-04-14T12:24:58.727Z,48.99
2023-04-14T12:27:25.515Z,48.92
2023-04-14T12:29:52.330Z,48.96
2023-04-14T12:32:18.943Z,49.05
2023-04-14T12:34:57.553Z,49.05
2023-04-14T12:37:26.505Z,49.12
2023-04-14T12:39:58.532Z,49.21
2023-04-14T12:42:25.981Z,49.32
2023-04-14T12:45:02.243Z,49.34
2023-04-14T12:47:29.918Z,49.63
2023-04-14T12:49:57.056Z,49.52
2023-04-14T12:52:39.898Z,49.67
2023-04-14T12:55:07.817Z,49.71
2023-04-14T12:57:34.880Z,49.81
2023-04-14T13:00:02.054Z,49.41
2023-04-14T13:02:30.054Z,49.77
2023-04-14T13:04:56.984Z,49.87
2023-04-14T13:07:23.632Z,49.71
2023-04-14T13:09:51.630Z,49.80
2023-04-14T13:12:18.602Z,50.08
2023-04-14T13:14:45.300Z,49.86
2023-04-14T13:17:11.877Z,49.97
2023-04-14T13:19:38.461Z,49.80
2023-04-14T13:22:05.015Z,50.17
2023-04-14T13:24:31.582Z,49.99
2023-04-14T13:26:58.114Z,49.80
2023-04-14T13:29:24.704Z,50.06
2023-04-14T13:31:51.244Z,50.33
2023-04-14T13:34:17.854Z,49.73
2023-04-14T13:36:45.564Z,49.86
2023-04-14T13:39:12.415Z,50.20
2023-04-14T13:41:39.058Z,49.95
2023-04-14T13:44:05.681Z,50.01
2023-04-14T13:46:40.646Z,50.03
2023-04-14T13:49:07.931Z,50.12
2023-04-14T13:51:34.583Z,50.12
2023-04-14T13:54:01.406Z,50.21
2023-04-14T13:56:28.137Z,49.73
2023-04-14T13:58:54.905Z,50.12
2023-04-14T14:01:21.440Z,49.70
2023-04-14T14:03:49.967Z,50.11
2023-04-14T14:06:16.995Z,50.04
2023-04-14T14:08:43.587Z,50.40
2023-04-14T14:11:10.672Z,50.31
2023-04-14T14:13:38.670Z,50.18
2023-04-14T14:16:06.709Z,50.24
2023-04-14T14:18:33.767Z,50.17
2023-04-14T14:21:00.327Z,50.36
2023-04-14T14:23:26.934Z,50.34
2023-04-14T14:25:54.502Z,50.17
2023-04-14T14:28:22.255Z,50.84
2023-04-14T14:30:48.824Z,50.37
2023-04-14T14:33:15.353Z,50.34
2023-04-14T14:35:41.902Z,50.48
2023-04-14T14:38:08.513Z,50.09
2023-04-14T14:40:35.076Z,50.56
2023-04-14T14:43:01.679Z,50.18
2023-04-14T14:45:30.719Z,50.84
2023-04-14T14:47:58.143Z,50.27
2023-04-14T14:50:24.697Z,50.04
2023-04-14T14:52:51.212Z,50.44
2023-04-14T14:55:17.946Z,50.29
2023-04-14T14:57:44.460Z,50.10
2023-04-14T15:00:11.485Z,50.59
2023-04-14T15:02:38.649Z,50.04
2023-04-14T15:05:07.291Z,50.43
2023-04-14T15:07:33.900Z,50.79
2023-04-14T15:10:01.644Z,50.07
2023-04-14T15:12:28.235Z,50.79
2023-04-14T15:14:54.831Z,50.31
2023-04-14T15:17:21.423Z,50.40
2023-04-14T15:19:48.121Z,50.18
2023-04-14T15:22:14.902Z,50.38
2023-04-14T15:24:41.453Z,50.54
2023-04-14T15:27:08.037Z,50.38
2023-04-14T15:29:34.596Z,50.30
2023-04-14T15:32:01.346Z,50.21
2023-04-14T15:34:28.090Z,50.41
2023-04-14T15:36:54.662Z,50.48
2023-04-14T15:39:21.412Z,50.34
2023-04-14T15:41:50.479Z,50.47
2023-04-14T15:44:17.404Z,51.02
2023-04-14T15:46:43.912Z,50.23
2023-04-14T15:49:10.483Z,50.96
2023-04-14T15:51:37.028Z,50.42
2023-04-14T15:54:04.231Z,50.43
2023-04-14T15:56:31.154Z,50.08
2023-04-14T15:58:57.747Z,50.42
2023-04-14T16:01:24.316Z,50.59
2023-04-14T16:03:52.621Z,50.59
2023-04-14T16:06:19.539Z,50.08
2023-04-14T16:08:46.081Z,50.55
2023-04-14T16:11:19.610Z,50.61
2023-04-14T16:13:46.293Z,50.47
2023-04-14T16:16:13.644Z,50.65
2023-04-14T16:18:40.255Z,50.29
2023-04-14T16:21:06.827Z,50.47
2023-04-14T16:23:33.447Z,50.53
2023-04-14T16:26:00.942Z,50.85
2023-04-14T16:28:28.234Z,50.32
2023-04-14T16:30:55.365Z,50.67
2023-04-14T16:33:21.916Z,50.50
2023-04-14T16:35:48.540Z,50.59
2023-04-14T16:38:15.117Z,50.53
2023-04-14T16:40:42.699Z,50.73
2023-04-14T16:43:09.671Z,50.16
2023-04-14T16:45:36.482Z,50.87
2023-04-14T16:48:03.159Z,50.09
2023-04-14T16:50:31.922Z,50.41
2023-04-14T16:52:58.511Z,50.60
2023-04-14T16:55:25.111Z,50.51
2023-04-14T16:57:51.686Z,50.53
2023-04-14T17:00:18.919Z,50.70
2023-04-14T17:02:45.902Z,50.44
2023-04-14T17:05:15.750Z,50.64
2023-04-14T17:07:42.781Z,50.66
2023-04-14T17:10:09.839Z,50.50
2023-04-14T17:12:39.326Z,50.61
2023-04-14T17:15:06.716Z,50.73
2023-04-14T17:17:33.934Z,50.90
2023-04-14T17:20:00.563Z,50.78
2023-04-14T17:22:27.586Z,50.61
2023-04-14T17:24:54.512Z,50.65
2023-04-14T17:27:21.310Z,48.59
2023-04-14T17:29:48.352Z,48.45
2023-04-14T17:32:14.965Z,48.87
2023-04-14T17:34:41.589Z,48.79
2023-04-14T17:37:08.339Z,48.38
2023-04-14T17:39:34.842Z,49.35
2023-04-14T17:42:01.603Z,49.41
2023-04-14T17:44:34.979Z,49.35
2023-04-14T17:47:03.454Z,49.57
2023-04-14T17:49:30.393Z,49.66
2023-04-14T17:51:57.023Z,49.69
2023-04-14T17:54:23.553Z,49.72
2023-04-14T17:56:50.381Z,50.00
2023-04-14T17:59:17.443Z,49.78
2023-04-14T18:01:44.063Z,50.12
2023-04-14T18:04:10.895Z,49.68
2023-04-14T18:06:37.518Z,49.24
2023-04-14T18:09:04.125Z,48.47
2023-04-14T18:11:31.500Z,48.14
2023-04-14T18:13:58.130Z,47.76
2023-04-14T18:16:25.089Z,48.60
2023-04-14T18:18:51.676Z,48.90
2023-04-14T18:21:18.664Z,48.77
2023-04-14T18:23:45.154Z,48.93
2023-04-14T18:28:41.526Z,49.53
2023-04-14T18:31:08.707Z,49.61
2023-04-14T18:33:35.337Z,49.92
2023-04-14T18:36:02.327Z,49.11
2023-04-14T18:38:28.937Z,49.38
2023-04-14T18:41:01.772Z,49.79
2023-04-14T18:43:28.460Z,49.60
2023-04-14T18:45:54.982Z,49.93
2023-04-14T18:48:21.576Z,49.85
2023-04-14T18:50:49.152Z,49.78
2023-04-14T18:53:15.775Z,49.76
2023-04-14T18:55:45.131Z,50.14
2023-04-14T18:58:12.949Z,49.73
2023-04-14T19:00:39.966Z,49.97
2023-04-14T19:03:08.614Z,49.99
2023-04-14T19:05:36.925Z,49.98
2023-04-14T19:08:07.456Z,50.05
2023-04-14T19:10:34.423Z,50.11
2023-04-14T19:13:00.974Z,49.78
2023-04-14T19:15:27.890Z,50.13
2023-04-14T19:17:55.642Z,50.07
2023-04-14T19:20:22.406Z,50.23
2023-04-14T19:22:49.568Z,49.87
2023-04-14T19:25:16.740Z,50.18
2023-04-14T19:27:43.526Z,50.50
2023-04-14T19:30:10.823Z,50.13
2023-04-14T19:32:37.475Z,50.68
2023-04-14T19:35:06.462Z,50.29
2023-04-14T19:37:33.897Z,50.15
2023-04-14T19:40:01.043Z,50.25
2023-04-14T19:42:27.811Z,50.37
2023-04-14T19:44:54.896Z,50.16
2023-04-14T19:47:21.910Z,50.07
2023-04-14T19:49:49.449Z,50.47
2023-04-14T19:52:16.014Z,50.31
2023-04-14T19:54:42.533Z,50.27
2023-04-14T19:57:09.101Z,50.38
2023-04-14T19:59:35.625Z,50.31
2023-04-14T20:02:04.972Z,50.91
2023-04-14T20:04:31.741Z,50.32
2023-04-14T20:06:58.340Z,50.31
2023-04-14T20:09:26.004Z,50.42
2023-04-14T20:11:52.631Z,50.66
2023-04-14T20:14:19.379Z,50.16
2023-04-14T20:16:46.019Z,50.51
2023-04-14T20:19:12.778Z,50.75
2023-04-14T20:21:39.622Z,50.44
2023-04-14T20:24:06.395Z,50.41
2023-04-14T20:26:34.933Z,50.45
2023-04-14T20:29:01.697Z,50.60
2023-04-14T20:31:29.101Z,50.50
2023-04-14T20:33:56.259Z,50.82
2023-04-14T20:36:23.397Z,50.67
2023-04-14T20:38:49.926Z,50.62
2023-04-14T20:41:16.505Z,50.50
2023-04-14T20:43:43.575Z,50.53
2023-04-14T20:46:11.141Z,50.46
2023-04-14T20:48:37.759Z,50.60
2023-04-14T20:51:04.380Z,50.44
2023-04-14T20:53:30.944Z,50.44
2023-04-14T20:55:57.465Z,50.66
2023-04-14T20:58:24.614Z,50.81
2023-04-14T21:00:51.390Z,50.30
2023-04-14T21:03:18.060Z,50.70
2023-04-14T21:05:44.866Z,50.24
2023-04-14T21:08:12.558Z,50.32
2023-04-14T21:11:02.235Z,50.86
2023-04-14T21:15:26.616Z,50.54
2023-04-14T21:16:12.796Z,50.67
2023-04-14T21:18:39.428Z,50.68
2023-04-14T21:21:06.590Z,50.65
2023-04-14T21:23:35.284Z,50.66
2023-04-14T21:26:01.866Z,50.71
2023-04-14T21:28:28.388Z,50.68
2023-04-14T21:31:00.504Z,50.42
2023-04-14T21:33:30.841Z,50.64
2023-04-14T21:35:57.385Z,50.71
2023-04-14T21:38:24.522Z,50.69
2023-04-14T21:40:51.571Z,50.54
2023-04-14T21:43:18.257Z,50.73
2023-04-14T21:45:44.914Z,50.63
2023-04-14T21:48:12.600Z,50.60
2023-04-14T21:50:39.723Z,50.83
2023-04-14T21:53:06.284Z,50.79
2023-04-14T21:55:32.781Z,50.54
2023-04-14T21:57:59.348Z,50.77
2023-04-14T22:00:26.686Z,50.65
2023-04-14T22:02:53.439Z,50.68
2023-04-14T22:05:20.188Z,50.67
2023-04-14T22:07:46.728Z,50.66
2023-04-14T22:10:13.295Z,51.09
2023-04-14T22:12:39.913Z,50.88
2023-04-14T22:15:08.715Z,50.28
2023-04-14T22:17:36.532Z,50.78
2023-04-14T22:20:05.995Z,50.83
2023-04-14T22:22:32.985Z,50.89
2023-04-14T22:25:00.179Z,50.89
2023-04-14T22:27:26.915Z,50.88
2023-04-14T22:29:54.032Z,50.99
2023-04-14T22:32:20.741Z,50.66
2023-04-14T22:34:47.226Z,51.51
2023-04-14T22:37:13.824Z,50.89
2023-04-14T22:39:40.680Z,50.69
2023-04-14T22:42:07.236Z,51.17
2023-04-14T22:44:33.802Z,50.70
2023-04-14T22:47:01.025Z,50.96
2023-04-14T22:49:27.604Z,50.88
2023-04-14T22:51:54.155Z,50.56
2023-04-14T22:54:20.708Z,50.92
2023-04-14T22:56:48.197Z,51.03
2023-04-14T22:59:16.711Z,50.91
2023-04-14T23:01:43.296Z,50.42
2023-04-14T23:04:10.025Z,50.37
2023-04-14T23:06:36.991Z,51.06
2023-04-14T23:09:03.816Z,50.87
2023-04-14T23:11:30.481Z,50.68
2023-04-14T23:13:57.293Z,50.95
2023-04-14T23:16:23.949Z,50.92
2023-04-14T23:18:52.784Z,50.85
2023-04-14T23:21:22.058Z,50.78
2023-04-14T23:23:49.397Z,50.77
2023-04-14T23:26:17.407Z,50.91
2023-04-14T23:28:44.017Z,50.28
2023-04-14T23:31:10.958Z,50.92
2023-04-14T23:33:37.568Z,50.88
2023-04-14T23:36:04.258Z,50.95
2023-04-14T23:38:30.781Z,50.96
2023-04-14T23:40:59.031Z,51.51
2023-04-14T23:43:27.396Z,50.98
2023-04-14T23:45:53.997Z,51.15
2023-04-14T23:48:20.777Z,50.72
2023-04-14T23:51:00.567Z,51.02
2023-04-14T23:53:34.127Z,50.59
2023-04-14T23:56:00.910Z,50.92
2023-04-14T23:58:30.335Z,51.03
